Wilson Gdynia — 8PSA — position and weather

sailwx.info

Track history (hours):
 
Tides and Currents Weather Stations Pressure Air Temp Water Temp Dewpoint Dewpoint Depression Visibility Wind Speed Wind Dir Waves Ship Positions

Wilson Gdynia

Last reported at 2016-May-02 23:33 UTC. Time now 2016-May-03 01:13 UTC.
Position N 51°24' E 000°31'.

Length 88 m; draft 5.1 m.

Type: Cargo ship. MMSI: 314192000.

Date/timePositionNaut miles runAvg speedWind from/ knotsBaromVisibWave heightAir tempDewpointWater temp
2016-May-02 23:33N 51°24' E 000°31'0 0.0
2016-May-02 22:33N 51°24' E 000°31'0 0.0
2016-May-02 21:33N 51°24' E 000°31'0 0.0
2016-May-02 20:33N 51°24' E 000°31'2 1.7
2016-May-02 19:33N 51°24' E 000°33'9 8.9
2016-May-02 18:33N 51°28' E 000°46'8 7.9
2016-May-02 17:33N 51°29' E 000°59'7 6.7
2016-May-02 16:33N 51°29' E 001°10'7 6.8
2016-May-02 15:33N 51°29' E 001°20'7 6.7
2016-May-02 14:34N 51°26' E 001°30'7 6.8
2016-May-02 13:34N 51°20' E 001°36'7 6.6
2016-May-02 12:34N 51°14' E 001°38'8 7.5
2016-May-02 11:34N 51°06' E 001°40'8 8.5
2016-May-02 10:33N 50°60' E 001°31'8 7.5
2016-May-02 09:33N 50°53' E 001°25'51 7.3
2016-May-02 02:32N 50°24' E 000°19'9 8.8
2016-May-02 01:33N 50°22' E 000°06'9 8.9
2016-May-02 00:30N 50°20' W 000°08'8 8.7
2016-May-01 23:33N 50°17' W 000°20'8 8.2
2016-May-01 22:33N 50°15' W 000°33'93 9.3
2016-May-01 12:33N 49°51' W 002°52'11 9.7
2016-May-01 11:22N 49°51' W 003°10'8 9.4
2016-May-01 10:34N 49°52' W 003°22'9 9.1
2016-May-01 09:34N 49°52' W 003°36'9 9.1
2016-May-01 08:33N 49°52' W 003°50'13 9.4
2016-May-01 07:12N 49°53' W 004°10'8 9.7
2016-May-01 06:23N 49°53' W 004°22'8 9.5
2016-May-01 05:33N 49°53' W 004°35'9 9.3
2016-May-01 04:32N 49°53' W 004°49'9 9.4
2016-May-01 03:33N 49°53' W 005°04'20 9.8
2016-May-01 01:31N 49°54' W 005°34'229 8.7
2016-Apr-29 23:05N 53°43' W 005°54'5 9.6
2016-Apr-29 22:31N 53°48' W 005°57'9 9.8
2016-Apr-29 21:33N 53°57' W 006°01'12 9.9
2016-Apr-29 20:22N 54°06' W 006°15'0 0.0
2016-Apr-29 10:10N 54°06' W 006°15'0 0.0
2016-Apr-29 05:25N 54°06' W 006°16'0 0.0
2016-Apr-29 04:19N 54°06' W 006°16'0 0.0
2016-Apr-29 03:04N 54°06' W 006°16'0 0.0
2016-Apr-29 00:19N 54°06' W 006°15'5 0.2
2016-Apr-27 22:25N 54°03' W 006°08'8 8.7
2016-Apr-27 21:32N 54°02' W 005°55'1110.9
2016-Apr-27 20:33N 54°08' W 005°40'1110.8
2016-Apr-27 19:33N 54°15' W 005°27'1010.5
2016-Apr-27 18:33N 54°24' W 005°18'1110.8
2016-Apr-27 17:34N 54°35' W 005°18'1010.4
2016-Apr-27 16:34N 54°46' W 005°18'1010.1
2016-Apr-27 15:33N 54°56' W 005°18'3310.7
2016-Apr-27 12:28N 55°28' W 005°04'2 0.2
2016-Apr-27 01:10N 55°30' W 005°05'0 0.0
2016-Apr-26 14:11N 55°30' W 005°05'  
2016-Apr-23 10:07N 55°15' W 005°30'711.9
2016-Apr-23 09:33N 55°13' W 005°42'1211.8
2016-Apr-23 08:31N 55°17' W 006°02'1111.7
2016-Apr-23 07:33N 55°23' W 006°18'1111.1
2016-Apr-23 06:33N 55°30' W 006°34'10 9.9
2016-Apr-23 05:33N 55°38' W 006°44'8 8.1
2016-Apr-23 04:33N 55°45' W 006°52'  
Track history (hours):
 
Tides and Currents Weather Stations Pressure Air Temp Water Temp Dewpoint Dewpoint Depression Visibility Wind Speed Wind Dir Waves Ship Positions

Wilson Gdynia

Last reported at 2016-May-02 23:33 UTC. Time now 2016-May-03 01:13 UTC.
Position N 51°24' E 000°31'.

Length 88 m; draft 5.1 m.

Type: Cargo ship. MMSI: 314192000.

Date/timePositionNaut miles runAvg speedWind from/ knotsBaromVisibWave heightAir tempDewpointWater temp
2016-May-02 23:33N 51°24' E 000°31'0 0.0
2016-May-02 22:33N 51°24' E 000°31'0 0.0
2016-May-02 21:33N 51°24' E 000°31'0 0.0
2016-May-02 20:33N 51°24' E 000°31'2 1.7
2016-May-02 19:33N 51°24' E 000°33'9 8.9
2016-May-02 18:33N 51°28' E 000°46'8 7.9
2016-May-02 17:33N 51°29' E 000°59'7 6.7
2016-May-02 16:33N 51°29' E 001°10'7 6.8
2016-May-02 15:33N 51°29' E 001°20'7 6.7
2016-May-02 14:34N 51°26' E 001°30'7 6.8
2016-May-02 13:34N 51°20' E 001°36'7 6.6
2016-May-02 12:34N 51°14' E 001°38'8 7.5
2016-May-02 11:34N 51°06' E 001°40'8 8.5
2016-May-02 10:33N 50°60' E 001°31'8 7.5
2016-May-02 09:33N 50°53' E 001°25'51 7.3
2016-May-02 02:32N 50°24' E 000°19'9 8.8
2016-May-02 01:33N 50°22' E 000°06'9 8.9
2016-May-02 00:30N 50°20' W 000°08'8 8.7
2016-May-01 23:33N 50°17' W 000°20'8 8.2
2016-May-01 22:33N 50°15' W 000°33'93 9.3
2016-May-01 12:33N 49°51' W 002°52'11 9.7
2016-May-01 11:22N 49°51' W 003°10'8 9.4
2016-May-01 10:34N 49°52' W 003°22'9 9.1
2016-May-01 09:34N 49°52' W 003°36'9 9.1
2016-May-01 08:33N 49°52' W 003°50'13 9.4
2016-May-01 07:12N 49°53' W 004°10'8 9.7
2016-May-01 06:23N 49°53' W 004°22'8 9.5
2016-May-01 05:33N 49°53' W 004°35'9 9.3
2016-May-01 04:32N 49°53' W 004°49'9 9.4
2016-May-01 03:33N 49°53' W 005°04'20 9.8
2016-May-01 01:31N 49°54' W 005°34'229 8.7
2016-Apr-29 23:05N 53°43' W 005°54'5 9.6
2016-Apr-29 22:31N 53°48' W 005°57'9 9.8
2016-Apr-29 21:33N 53°57' W 006°01'12 9.9
2016-Apr-29 20:22N 54°06' W 006°15'0 0.0
2016-Apr-29 10:10N 54°06' W 006°15'0 0.0
2016-Apr-29 05:25N 54°06' W 006°16'0 0.0
2016-Apr-29 04:19N 54°06' W 006°16'0 0.0
2016-Apr-29 03:04N 54°06' W 006°16'0 0.0
2016-Apr-29 00:19N 54°06' W 006°15'5 0.2
2016-Apr-27 22:25N 54°03' W 006°08'8 8.7
2016-Apr-27 21:32N 54°02' W 005°55'1110.9
2016-Apr-27 20:33N 54°08' W 005°40'1110.8
2016-Apr-27 19:33N 54°15' W 005°27'1010.5
2016-Apr-27 18:33N 54°24' W 005°18'1110.8
2016-Apr-27 17:34N 54°35' W 005°18'1010.4
2016-Apr-27 16:34N 54°46' W 005°18'1010.1
2016-Apr-27 15:33N 54°56' W 005°18'3310.7
2016-Apr-27 12:28N 55°28' W 005°04'2 0.2
2016-Apr-27 01:10N 55°30' W 005°05'0 0.0
2016-Apr-26 14:11N 55°30' W 005°05'  
2016-Apr-23 10:07N 55°15' W 005°30'711.9
2016-Apr-23 09:33N 55°13' W 005°42'1211.8
2016-Apr-23 08:31N 55°17' W 006°02'1111.7
2016-Apr-23 07:33N 55°23' W 006°18'1111.1
2016-Apr-23 06:33N 55°30' W 006°34'10 9.9
2016-Apr-23 05:33N 55°38' W 006°44'8 8.1
2016-Apr-23 04:33N 55°45' W 006°52'  

Dump ship's entire track history